RYR85KK LEAM-EBCI
Flight info
| Callsign | RYR85KK |
|---|---|
| Flight time | 2h 21m |
| Altitude | 38000 |
| Route | ESILA N865 VTB DCT RBO DCT OSTIX DCT GASMO DCT DGO N858 ABRIX DCT CNA DCT ADABI/N0431F340 DCT BOKNO UN858 VANAD UN874 BAMES UT191 PODEM UN873 BAZOS DCT BELDI DCT VEKIN Z173 ARVOL |
| Aircraft | B38M/M-SDE1FGHILORVWXY/HB1 |
Departure
| Time | 2026-04-23 12:06 |
|---|---|
| Airport | Almería Airport (LEAM) |
Arrival
| Time | 2026-04-23 14:27 |
|---|---|
| Airport | Brussels South Charleroi Airport (EBCI) |
| Time | Latitude | Longitude | Altitude | Speed | Heading |
|---|---|---|---|---|---|
| 2026-04-23 11:42 | 36.84633 | -2.37333 | 64 ft | 0 kts | 121° |
| 2026-04-23 12:00 | 36.84633 | -2.37332 | 72 ft | 0 kts | 121° |
| 2026-04-23 12:00 | 36.84633 | -2.37331 | 72 ft | 0 kts | 122° |
| 2026-04-23 12:00 | 36.84628 | -2.37327 | 72 ft | 2 kts | 146° |
| 2026-04-23 12:01 | 36.84603 | -2.37327 | 71 ft | 7 kts | 190° |
| 2026-04-23 12:01 | 36.84539 | -2.37354 | 66 ft | 12 kts | 202° |
| 2026-04-23 12:01 | 36.84512 | -2.37364 | 65 ft | 0 kts | 195° |
| 2026-04-23 12:01 | 36.84498 | -2.37371 | 68 ft | 6 kts | 209° |
| 2026-04-23 12:02 | 36.84459 | -2.37458 | 66 ft | 18 kts | 253° |
| 2026-04-23 12:02 | 36.84417 | -2.37626 | 65 ft | 21 kts | 254° |
| 2026-04-23 12:02 | 36.84387 | -2.37742 | 64 ft | 21 kts | 253° |
| 2026-04-23 12:02 | 36.84344 | -2.37920 | 64 ft | 20 kts | 251° |
| 2026-04-23 12:03 | 36.84312 | -2.38055 | 68 ft | 15 kts | 253° |
| 2026-04-23 12:03 | 36.84264 | -2.38247 | 62 ft | 18 kts | 252° |
| 2026-04-23 12:03 | 36.84239 | -2.38354 | 67 ft | 19 kts | 254° |
| 2026-04-23 12:03 | 36.84209 | -2.38479 | 67 ft | 14 kts | 253° |
| 2026-04-23 12:04 | 36.84172 | -2.38622 | 68 ft | 20 kts | 252° |
| 2026-04-23 12:04 | 36.84141 | -2.38737 | 63 ft | 2 kts | 238° |
| 2026-04-23 12:04 | 36.84122 | -2.38765 | 61 ft | 8 kts | 221° |
| 2026-04-23 12:04 | 36.84029 | -2.38748 | 60 ft | 21 kts | 127° |
| 2026-04-23 12:05 | 36.83994 | -2.38644 | 64 ft | 7 kts | 72° |
| 2026-04-23 12:05 | 36.84023 | -2.38529 | 61 ft | 33 kts | 72° |
| 2026-04-23 12:05 | 36.84165 | -2.37949 | 62 ft | 104 kts | 73° |
| 2026-04-23 12:05 | 36.84432 | -2.36859 | 199 ft | 148 kts | 73° |
| 2026-04-23 12:06 | 36.84727 | -2.35614 | 1040 ft | 134 kts | 74° |
| 2026-04-23 12:06 | 36.84974 | -2.34611 | 2095 ft | 115 kts | 71° |
| 2026-04-23 12:06 | 36.85474 | -2.32607 | 3100 ft | 134 kts | 70° |
| 2026-04-23 12:07 | 36.85788 | -2.31376 | 3361 ft | 163 kts | 71° |
| 2026-04-23 12:07 | 36.86152 | -2.29931 | 3734 ft | 188 kts | 72° |
| 2026-04-23 12:07 | 36.86569 | -2.28283 | 4191 ft | 211 kts | 73° |
| 2026-04-23 12:07 | 36.87013 | -2.26450 | 4806 ft | 228 kts | 81° |
| 2026-04-23 12:08 | 36.86908 | -2.24428 | 5336 ft | 241 kts | 116° |
| 2026-04-23 12:08 | 36.85885 | -2.22852 | 6307 ft | 236 kts | 146° |
| 2026-04-23 12:08 | 36.84366 | -2.22034 | 7006 ft | 241 kts | 166° |
| 2026-04-23 12:08 | 36.82772 | -2.21436 | 7881 ft | 241 kts | 166° |
| 2026-04-23 12:09 | 36.81158 | -2.20817 | 8749 ft | 246 kts | 166° |
| 2026-04-23 12:09 | 36.79479 | -2.20171 | 9457 ft | 254 kts | 167° |
| 2026-04-23 12:09 | 36.77770 | -2.19801 | 10409 ft | 246 kts | 185° |
| 2026-04-23 12:09 | 36.76128 | -2.20383 | 11124 ft | 252 kts | 211° |
| 2026-04-23 12:10 | 36.74856 | -2.21872 | 11990 ft | 251 kts | 235° |
| 2026-04-23 12:10 | 36.74126 | -2.23878 | 12792 ft | 259 kts | 247° |
| 2026-04-23 12:10 | 36.73548 | -2.26016 | 13674 ft | 259 kts | 246° |
| 2026-04-23 12:10 | 36.72985 | -2.28148 | 14323 ft | 267 kts | 249° |
| 2026-04-23 12:11 | 36.72407 | -2.30398 | 14950 ft | 274 kts | 248° |
| 2026-04-23 12:11 | 36.71981 | -2.32774 | 15405 ft | 294 kts | 265° |
| 2026-04-23 12:11 | 36.72404 | -2.35370 | 15773 ft | 319 kts | 292° |
| 2026-04-23 12:11 | 36.73765 | -2.37655 | 16136 ft | 341 kts | 314° |
| 2026-04-23 12:12 | 36.75511 | -2.39727 | 16367 ft | 360 kts | 312° |
| 2026-04-23 12:12 | 36.77332 | -2.41997 | 16529 ft | 380 kts | 312° |
| 2026-04-23 12:12 | 36.79234 | -2.44391 | 16777 ft | 395 kts | 312° |
| 2026-04-23 12:12 | 36.81181 | -2.46852 | 17280 ft | 400 kts | 312° |
| 2026-04-23 12:13 | 36.83143 | -2.49342 | 17948 ft | 403 kts | 312° |
| 2026-04-23 12:13 | 36.85128 | -2.51865 | 18480 ft | 409 kts | 311° |
| 2026-04-23 12:13 | 36.87102 | -2.54376 | 18999 ft | 412 kts | 311° |
| 2026-04-23 12:13 | 36.89120 | -2.56943 | 19538 ft | 415 kts | 312° |
| 2026-04-23 12:14 | 36.91144 | -2.59522 | 20111 ft | 416 kts | 312° |
| 2026-04-23 12:14 | 36.93175 | -2.62112 | 20628 ft | 419 kts | 311° |
| 2026-04-23 12:14 | 36.95232 | -2.64739 | 21108 ft | 424 kts | 312° |
| 2026-04-23 12:14 | 36.97308 | -2.67388 | 21714 ft | 424 kts | 313° |
| 2026-04-23 12:15 | 36.99377 | -2.70033 | 22168 ft | 428 kts | 312° |
| 2026-04-23 12:15 | 37.01477 | -2.72720 | 22573 ft | 434 kts | 313° |
| 2026-04-23 12:15 | 37.03564 | -2.75391 | 23130 ft | 436 kts | 312° |
| 2026-04-23 12:15 | 37.05436 | -2.78400 | 23464 ft | 438 kts | 297° |
| 2026-04-23 12:16 | 37.06812 | -2.81796 | 23983 ft | 438 kts | 294° |
| 2026-04-23 12:16 | 37.08216 | -2.85215 | 24405 ft | 441 kts | 294° |
| 2026-04-23 12:16 | 37.09584 | -2.88601 | 24899 ft | 441 kts | 294° |
| 2026-04-23 12:16 | 37.10959 | -2.92042 | 25284 ft | 443 kts | 293° |
| 2026-04-23 12:17 | 37.12338 | -2.95517 | 25707 ft | 445 kts | 294° |
| 2026-04-23 12:17 | 37.13720 | -2.99008 | 26175 ft | 447 kts | 294° |
| 2026-04-23 12:17 | 37.15106 | -3.02510 | 26590 ft | 449 kts | 294° |
| 2026-04-23 12:17 | 37.16484 | -3.05996 | 26976 ft | 452 kts | 293° |
| 2026-04-23 12:18 | 37.17884 | -3.09540 | 27379 ft | 454 kts | 294° |
| 2026-04-23 12:18 | 37.19291 | -3.13109 | 27776 ft | 457 kts | 294° |
| 2026-04-23 12:18 | 37.20705 | -3.16698 | 28165 ft | 459 kts | 294° |
| 2026-04-23 12:18 | 37.22125 | -3.20308 | 28552 ft | 461 kts | 294° |
| 2026-04-23 12:19 | 37.23532 | -3.23888 | 28937 ft | 463 kts | 294° |
| 2026-04-23 12:19 | 37.24969 | -3.27526 | 29316 ft | 466 kts | 294° |
| 2026-04-23 12:19 | 37.26440 | -3.31167 | 29697 ft | 468 kts | 294° |
| 2026-04-23 12:19 | 37.27917 | -3.34837 | 30086 ft | 469 kts | 294° |
| 2026-04-23 12:20 | 37.29390 | -3.38505 | 30467 ft | 469 kts | 294° |
| 2026-04-23 12:20 | 37.30836 | -3.42111 | 30889 ft | 468 kts | 294° |
| 2026-04-23 12:20 | 37.32301 | -3.45767 | 31337 ft | 467 kts | 294° |
| 2026-04-23 12:20 | 37.33762 | -3.49421 | 31757 ft | 467 kts | 293° |
| 2026-04-23 12:21 | 37.35219 | -3.53065 | 32191 ft | 465 kts | 293° |
| 2026-04-23 12:21 | 37.36866 | -3.56573 | 32581 ft | 469 kts | 305° |
| 2026-04-23 12:21 | 37.39177 | -3.59484 | 33008 ft | 474 kts | 320° |
| 2026-04-23 12:21 | 37.42042 | -3.61576 | 33409 ft | 479 kts | 335° |
| 2026-04-23 12:22 | 37.45260 | -3.62711 | 33801 ft | 483 kts | 351° |
| 2026-04-23 12:22 | 37.48576 | -3.62910 | 34153 ft | 484 kts | 358° |
| 2026-04-23 12:22 | 37.51958 | -3.62937 | 34449 ft | 485 kts | 358° |
| 2026-04-23 12:22 | 37.55335 | -3.62940 | 34783 ft | 484 kts | 358° |
| 2026-04-23 12:23 | 37.58699 | -3.62927 | 35114 ft | 483 kts | 358° |
| 2026-04-23 12:23 | 37.62067 | -3.62907 | 35453 ft | 482 kts | 358° |
| 2026-04-23 12:23 | 37.65422 | -3.62884 | 35778 ft | 481 kts | 358° |
| 2026-04-23 12:23 | 37.68777 | -3.62857 | 36004 ft | 482 kts | 358° |
| 2026-04-23 12:24 | 37.75443 | -3.62803 | 35975 ft | 479 kts | 358° |
| 2026-04-23 12:24 | 37.82119 | -3.62748 | 35983 ft | 480 kts | 358° |
| 2026-04-23 12:25 | 37.88796 | -3.62693 | 35984 ft | 479 kts | 358° |
| 2026-04-23 12:25 | 37.95437 | -3.62638 | 35984 ft | 479 kts | 358° |
| 2026-04-23 12:26 | 38.02109 | -3.62582 | 35980 ft | 479 kts | 358° |
| 2026-04-23 12:26 | 38.08791 | -3.62526 | 36162 ft | 480 kts | 358° |
| 2026-04-23 12:27 | 38.12128 | -3.62499 | 36475 ft | 479 kts | 358° |
| 2026-04-23 12:27 | 38.15463 | -3.62398 | 36736 ft | 480 kts | 3° |
| 2026-04-23 12:27 | 38.18758 | -3.62028 | 37024 ft | 479 kts | 2° |
| 2026-04-23 12:27 | 38.22081 | -3.61684 | 37324 ft | 478 kts | 2° |
| 2026-04-23 12:28 | 38.25410 | -3.61359 | 37619 ft | 477 kts | 2° |
| 2026-04-23 12:28 | 38.28725 | -3.61043 | 37898 ft | 476 kts | 1° |
| 2026-04-23 12:28 | 38.31998 | -3.60732 | 38024 ft | 477 kts | 1° |
| 2026-04-23 12:28 | 38.35300 | -3.60418 | 37974 ft | 475 kts | 1° |
| 2026-04-23 12:29 | 38.41884 | -3.59793 | 37985 ft | 474 kts | 1° |
| 2026-04-23 12:29 | 38.48425 | -3.59170 | 37982 ft | 473 kts | 1° |
| 2026-04-23 12:30 | 38.55015 | -3.58541 | 37986 ft | 474 kts | 1° |
| 2026-04-23 12:30 | 38.61597 | -3.57912 | 37991 ft | 474 kts | 1° |
| 2026-04-23 12:31 | 38.68182 | -3.57282 | 37980 ft | 474 kts | 1° |
| 2026-04-23 12:31 | 38.74725 | -3.56655 | 37987 ft | 474 kts | 1° |
| 2026-04-23 12:32 | 38.81314 | -3.56022 | 37992 ft | 474 kts | 1° |
| 2026-04-23 12:32 | 38.87852 | -3.55392 | 37990 ft | 473 kts | 1° |
| 2026-04-23 12:33 | 38.94427 | -3.54759 | 37994 ft | 473 kts | 1° |
| 2026-04-23 12:33 | 39.01009 | -3.54116 | 37999 ft | 473 kts | 2° |
| 2026-04-23 12:34 | 39.07538 | -3.53467 | 38008 ft | 473 kts | 2° |
| 2026-04-23 12:34 | 39.14105 | -3.52814 | 38009 ft | 472 kts | 2° |
| 2026-04-23 12:35 | 39.20661 | -3.52161 | 38009 ft | 472 kts | 2° |
| 2026-04-23 12:35 | 39.27212 | -3.51507 | 38013 ft | 472 kts | 2° |
| 2026-04-23 12:36 | 39.33728 | -3.50855 | 38018 ft | 472 kts | 2° |
| 2026-04-23 12:36 | 39.40286 | -3.50198 | 38022 ft | 472 kts | 1° |
| 2026-04-23 12:37 | 39.46839 | -3.49540 | 38027 ft | 472 kts | 1° |
| 2026-04-23 12:37 | 39.53390 | -3.48881 | 38041 ft | 472 kts | 1° |
| 2026-04-23 12:38 | 39.59906 | -3.48227 | 38029 ft | 471 kts | 1° |
| 2026-04-23 12:38 | 39.66465 | -3.47570 | 38035 ft | 472 kts | 1° |
| 2026-04-23 12:39 | 39.72968 | -3.46917 | 38035 ft | 471 kts | 1° |
| 2026-04-23 12:39 | 39.79511 | -3.46029 | 38031 ft | 472 kts | 7° |
| 2026-04-23 12:40 | 39.85975 | -3.44669 | 38027 ft | 473 kts | 6° |
| 2026-04-23 12:40 | 39.92491 | -3.43368 | 38036 ft | 473 kts | 6° |
| 2026-04-23 12:41 | 39.98946 | -3.42085 | 38048 ft | 471 kts | 6° |
| 2026-04-23 12:41 | 40.05411 | -3.40798 | 38035 ft | 469 kts | 6° |
| 2026-04-23 12:42 | 40.11885 | -3.39506 | 38045 ft | 469 kts | 6° |
| 2026-04-23 12:42 | 40.18312 | -3.38222 | 38045 ft | 470 kts | 6° |
| 2026-04-23 12:43 | 40.24775 | -3.36927 | 38044 ft | 469 kts | 6° |
| 2026-04-23 12:43 | 40.31216 | -3.35635 | 38049 ft | 468 kts | 6° |
| 2026-04-23 12:44 | 40.37566 | -3.34359 | 38050 ft | 468 kts | 6° |
| 2026-04-23 12:44 | 40.43980 | -3.33067 | 38059 ft | 468 kts | 6° |
| 2026-04-23 12:45 | 40.50438 | -3.31764 | 38048 ft | 469 kts | 6° |
| 2026-04-23 12:45 | 40.56910 | -3.30455 | 38049 ft | 469 kts | 6° |
| 2026-04-23 12:46 | 40.63332 | -3.29154 | 38049 ft | 469 kts | 6° |
| 2026-04-23 12:46 | 40.69797 | -3.27842 | 38056 ft | 469 kts | 6° |
| 2026-04-23 12:47 | 40.76275 | -3.26524 | 38052 ft | 469 kts | 6° |
| 2026-04-23 12:47 | 40.82696 | -3.25217 | 38059 ft | 470 kts | 6° |
| 2026-04-23 12:48 | 40.89150 | -3.23798 | 38051 ft | 469 kts | 7° |
| 2026-04-23 12:48 | 40.95591 | -3.22358 | 38054 ft | 469 kts | 7° |
| 2026-04-23 12:49 | 41.02030 | -3.20918 | 38063 ft | 469 kts | 7° |
| 2026-04-23 12:49 | 41.08479 | -3.19473 | 38062 ft | 469 kts | 7° |
| 2026-04-23 12:50 | 41.14890 | -3.18034 | 38060 ft | 469 kts | 7° |
| 2026-04-23 12:50 | 41.21348 | -3.16582 | 38041 ft | 469 kts | 7° |
| 2026-04-23 12:51 | 41.27788 | -3.15130 | 38043 ft | 469 kts | 7° |
| 2026-04-23 12:51 | 41.34201 | -3.13682 | 38042 ft | 469 kts | 7° |
| 2026-04-23 12:52 | 41.40638 | -3.12226 | 38027 ft | 469 kts | 7° |
| 2026-04-23 12:52 | 41.47081 | -3.10765 | 38031 ft | 469 kts | 7° |
| 2026-04-23 12:53 | 41.53516 | -3.09307 | 38034 ft | 469 kts | 7° |
| 2026-04-23 12:53 | 41.59930 | -3.07851 | 38024 ft | 469 kts | 7° |
| 2026-04-23 12:54 | 41.66370 | -3.06387 | 38017 ft | 469 kts | 7° |
| 2026-04-23 12:54 | 41.72789 | -3.04922 | 38020 ft | 468 kts | 7° |
| 2026-04-23 12:55 | 41.79168 | -3.03455 | 38016 ft | 463 kts | 7° |
| 2026-04-23 12:55 | 41.85493 | -3.01998 | 38026 ft | 463 kts | 7° |
| 2026-04-23 12:56 | 41.91864 | -3.00528 | 38018 ft | 463 kts | 7° |
| 2026-04-23 12:56 | 41.98220 | -2.99058 | 38032 ft | 463 kts | 7° |
| 2026-04-23 12:57 | 42.04536 | -2.97595 | 38018 ft | 462 kts | 7° |
| 2026-04-23 12:57 | 42.09808 | -2.96370 | 38037 ft | 462 kts | 7° |
| 2026-04-23 12:58 | 42.17190 | -2.94653 | 38041 ft | 462 kts | 7° |
| 2026-04-23 12:58 | 42.22458 | -2.93426 | 38042 ft | 461 kts | 7° |
| 2026-04-23 12:59 | 42.29818 | -2.91706 | 38034 ft | 461 kts | 7° |
| 2026-04-23 12:59 | 42.35099 | -2.90470 | 38019 ft | 461 kts | 7° |
| 2026-04-23 13:00 | 42.41435 | -2.88985 | 38043 ft | 461 kts | 7° |
| 2026-04-23 13:00 | 42.47511 | -2.86280 | 38061 ft | 465 kts | 27° |
| 2026-04-23 13:01 | 42.53202 | -2.82105 | 38018 ft | 467 kts | 27° |
| 2026-04-23 13:01 | 42.58902 | -2.77829 | 38048 ft | 467 kts | 27° |
| 2026-04-23 13:02 | 42.64549 | -2.73556 | 38057 ft | 467 kts | 27° |
| 2026-04-23 13:02 | 42.70237 | -2.69240 | 38081 ft | 467 kts | 27° |
| 2026-04-23 13:03 | 42.75887 | -2.64944 | 38080 ft | 467 kts | 26° |
| 2026-04-23 13:03 | 42.81574 | -2.60611 | 38083 ft | 467 kts | 27° |
| 2026-04-23 13:04 | 42.87247 | -2.56279 | 38079 ft | 467 kts | 26° |
| 2026-04-23 13:04 | 42.92890 | -2.51963 | 38030 ft | 468 kts | 27° |
| 2026-04-23 13:05 | 42.98578 | -2.47602 | 38025 ft | 468 kts | 27° |
| 2026-04-23 13:05 | 43.04234 | -2.43255 | 38023 ft | 464 kts | 27° |
| 2026-04-23 13:06 | 43.12643 | -2.36776 | 38025 ft | 464 kts | 27° |
| 2026-04-23 13:07 | 43.18280 | -2.32421 | 38028 ft | 464 kts | 27° |
| 2026-04-23 13:07 | 43.23872 | -2.28092 | 38020 ft | 462 kts | 27° |
| 2026-04-23 13:08 | 43.29473 | -2.23746 | 38038 ft | 461 kts | 27° |
| 2026-04-23 13:08 | 43.35032 | -2.19424 | 38018 ft | 461 kts | 27° |
| 2026-04-23 13:09 | 43.40629 | -2.15064 | 38025 ft | 461 kts | 27° |
| 2026-04-23 13:09 | 43.46177 | -2.10732 | 38026 ft | 460 kts | 27° |
| 2026-04-23 13:10 | 43.51759 | -2.06364 | 38036 ft | 460 kts | 27° |
| 2026-04-23 13:10 | 43.57309 | -2.02013 | 38035 ft | 461 kts | 27° |
| 2026-04-23 13:11 | 43.62884 | -1.97635 | 38052 ft | 461 kts | 27° |
| 2026-04-23 13:11 | 43.68454 | -1.93242 | 38042 ft | 461 kts | 27° |
| 2026-04-23 13:12 | 43.74032 | -1.88838 | 38054 ft | 460 kts | 26° |
| 2026-04-23 13:12 | 43.79553 | -1.84469 | 38052 ft | 459 kts | 26° |
| 2026-04-23 13:13 | 43.85093 | -1.80076 | 38055 ft | 459 kts | 27° |
| 2026-04-23 13:13 | 43.90635 | -1.75671 | 38056 ft | 458 kts | 27° |
| 2026-04-23 13:14 | 43.96165 | -1.71266 | 38052 ft | 458 kts | 27° |
| 2026-04-23 13:14 | 44.01667 | -1.66875 | 38067 ft | 458 kts | 27° |
| 2026-04-23 13:15 | 44.07198 | -1.62451 | 38055 ft | 457 kts | 27° |
| 2026-04-23 13:15 | 44.12694 | -1.58044 | 38059 ft | 457 kts | 27° |
| 2026-04-23 13:16 | 44.18217 | -1.53607 | 38065 ft | 457 kts | 27° |
| 2026-04-23 13:16 | 44.23693 | -1.49197 | 38059 ft | 455 kts | 27° |
| 2026-04-23 13:17 | 44.29172 | -1.44777 | 38063 ft | 455 kts | 27° |
| 2026-04-23 13:17 | 44.34615 | -1.40375 | 38069 ft | 455 kts | 27° |
| 2026-04-23 13:18 | 44.40110 | -1.35922 | 38069 ft | 455 kts | 27° |
| 2026-04-23 13:18 | 44.45550 | -1.31504 | 38072 ft | 454 kts | 27° |
| 2026-04-23 13:19 | 44.51021 | -1.27051 | 38075 ft | 454 kts | 27° |
| 2026-04-23 13:19 | 44.56510 | -1.22573 | 38075 ft | 455 kts | 27° |
| 2026-04-23 13:20 | 44.61942 | -1.18131 | 38080 ft | 455 kts | 27° |
| 2026-04-23 13:20 | 44.67415 | -1.13647 | 38086 ft | 454 kts | 27° |
| 2026-04-23 13:21 | 44.72829 | -1.09201 | 38067 ft | 452 kts | 27° |
| 2026-04-23 13:21 | 44.78261 | -1.04730 | 38081 ft | 453 kts | 27° |
| 2026-04-23 13:22 | 44.83701 | -1.00244 | 38082 ft | 453 kts | 27° |
| 2026-04-23 13:22 | 44.89142 | -0.95747 | 38086 ft | 452 kts | 27° |
| 2026-04-23 13:23 | 44.94545 | -0.91270 | 38101 ft | 452 kts | 27° |
| 2026-04-23 13:23 | 44.99990 | -0.86750 | 38099 ft | 453 kts | 27° |
| 2026-04-23 13:24 | 45.05387 | -0.82258 | 38092 ft | 452 kts | 27° |
| 2026-04-23 13:24 | 45.10807 | -0.77738 | 38098 ft | 452 kts | 27° |
| 2026-04-23 13:25 | 45.16224 | -0.73211 | 38095 ft | 449 kts | 27° |
| 2026-04-23 13:25 | 45.21607 | -0.68701 | 38102 ft | 448 kts | 27° |
| 2026-04-23 13:26 | 45.26940 | -0.64224 | 38120 ft | 448 kts | 27° |
| 2026-04-23 13:26 | 45.32302 | -0.59712 | 38114 ft | 448 kts | 27° |
| 2026-04-23 13:27 | 45.37668 | -0.55187 | 38115 ft | 448 kts | 27° |
| 2026-04-23 13:27 | 45.43035 | -0.50651 | 38117 ft | 447 kts | 27° |
| 2026-04-23 13:28 | 45.48361 | -0.46140 | 38128 ft | 448 kts | 27° |
| 2026-04-23 13:28 | 45.53717 | -0.41595 | 38124 ft | 448 kts | 27° |
| 2026-04-23 13:29 | 45.59080 | -0.37035 | 38139 ft | 447 kts | 27° |
| 2026-04-23 13:29 | 45.64396 | -0.32504 | 38130 ft | 447 kts | 27° |
| 2026-04-23 13:30 | 45.69657 | -0.27694 | 38131 ft | 448 kts | 29° |
| 2026-04-23 13:30 | 45.74908 | -0.22865 | 38135 ft | 448 kts | 29° |
| 2026-04-23 13:31 | 45.80120 | -0.18070 | 38136 ft | 448 kts | 30° |
| 2026-04-23 13:31 | 45.85363 | -0.13238 | 38142 ft | 448 kts | 30° |
| 2026-04-23 13:32 | 45.90603 | -0.08396 | 38139 ft | 448 kts | 30° |
| 2026-04-23 13:32 | 45.95839 | -0.03547 | 38139 ft | 447 kts | 30° |
| 2026-04-23 13:33 | 46.01042 | 0.01281 | 38159 ft | 446 kts | 30° |
| 2026-04-23 13:33 | 46.06234 | 0.06112 | 38146 ft | 444 kts | 30° |
| 2026-04-23 13:34 | 46.11432 | 0.10960 | 38152 ft | 444 kts | 30° |
| 2026-04-23 13:34 | 46.16630 | 0.15817 | 38150 ft | 444 kts | 30° |
| 2026-04-23 13:35 | 46.21780 | 0.20641 | 38148 ft | 442 kts | 30° |
| 2026-04-23 13:35 | 46.26946 | 0.25491 | 38156 ft | 443 kts | 30° |
| 2026-04-23 13:36 | 46.32118 | 0.30357 | 38158 ft | 443 kts | 30° |
| 2026-04-23 13:36 | 46.37253 | 0.35200 | 38167 ft | 443 kts | 30° |
| 2026-04-23 13:37 | 46.42417 | 0.40081 | 38173 ft | 442 kts | 30° |
| 2026-04-23 13:37 | 46.47548 | 0.44942 | 38173 ft | 438 kts | 29° |
| 2026-04-23 13:38 | 46.52628 | 0.49764 | 38184 ft | 439 kts | 29° |
| 2026-04-23 13:38 | 46.58052 | 0.53509 | 38209 ft | 426 kts | 9° |
| 2026-04-23 13:39 | 46.63835 | 0.55562 | 38169 ft | 427 kts | 10° |
| 2026-04-23 13:39 | 46.69600 | 0.57512 | 38181 ft | 428 kts | 9° |
| 2026-04-23 13:40 | 46.75411 | 0.59436 | 38186 ft | 427 kts | 9° |
| 2026-04-23 13:40 | 46.81215 | 0.61357 | 38185 ft | 427 kts | 9° |
| 2026-04-23 13:41 | 46.87015 | 0.63279 | 38184 ft | 427 kts | 9° |
| 2026-04-23 13:41 | 46.92825 | 0.65210 | 38184 ft | 427 kts | 9° |
| 2026-04-23 13:42 | 46.98594 | 0.67131 | 38201 ft | 427 kts | 9° |
| 2026-04-23 13:42 | 47.04397 | 0.69032 | 38187 ft | 426 kts | 6° |
| 2026-04-23 13:43 | 47.10280 | 0.69733 | 38194 ft | 424 kts | 1° |
| 2026-04-23 13:43 | 47.16168 | 0.70358 | 38216 ft | 424 kts | 1° |
| 2026-04-23 13:44 | 47.22032 | 0.70971 | 38230 ft | 425 kts | 1° |
| 2026-04-23 13:44 | 47.27956 | 0.71591 | 38230 ft | 425 kts | 1° |
| 2026-04-23 13:45 | 47.32877 | 0.72106 | 38238 ft | 425 kts | 1° |
| 2026-04-23 13:45 | 47.39751 | 0.72829 | 38243 ft | 426 kts | 1° |
| 2026-04-23 13:46 | 47.45693 | 0.73454 | 38240 ft | 428 kts | 1° |
| 2026-04-23 13:46 | 47.51518 | 0.74909 | 38250 ft | 431 kts | 16° |
| 2026-04-23 13:47 | 47.57264 | 0.77671 | 38234 ft | 433 kts | 14° |
| 2026-04-23 13:47 | 47.63001 | 0.80476 | 38234 ft | 435 kts | 16° |
| 2026-04-23 13:48 | 47.68714 | 0.83295 | 38232 ft | 435 kts | 16° |
| 2026-04-23 13:48 | 47.74463 | 0.86138 | 38239 ft | 435 kts | 16° |
| 2026-04-23 13:49 | 47.80178 | 0.88969 | 38250 ft | 435 kts | 17° |
| 2026-04-23 13:49 | 47.85870 | 0.91819 | 38237 ft | 436 kts | 17° |
| 2026-04-23 13:50 | 47.91595 | 0.94707 | 38249 ft | 436 kts | 17° |
| 2026-04-23 13:50 | 47.97347 | 0.97613 | 38254 ft | 436 kts | 16° |
| 2026-04-23 13:51 | 48.03070 | 1.00512 | 38239 ft | 436 kts | 16° |
| 2026-04-23 13:51 | 48.08767 | 1.03724 | 38278 ft | 437 kts | 20° |
| 2026-04-23 13:52 | 48.14378 | 1.07158 | 38255 ft | 438 kts | 19° |
| 2026-04-23 13:52 | 48.20034 | 1.10585 | 38256 ft | 438 kts | 19° |
| 2026-04-23 13:53 | 48.24729 | 1.13432 | 38276 ft | 438 kts | 20° |
| 2026-04-23 13:53 | 48.31326 | 1.17441 | 38272 ft | 439 kts | 20° |
| 2026-04-23 13:54 | 48.36036 | 1.20310 | 38261 ft | 439 kts | 20° |
| 2026-04-23 13:54 | 48.41689 | 1.23762 | 38265 ft | 439 kts | 20° |
| 2026-04-23 13:55 | 48.47348 | 1.27225 | 38265 ft | 439 kts | 20° |
| 2026-04-23 13:55 | 48.52984 | 1.30683 | 38275 ft | 440 kts | 21° |
| 2026-04-23 13:56 | 48.58670 | 1.34181 | 38284 ft | 441 kts | 21° |
| 2026-04-23 13:56 | 48.64357 | 1.37687 | 38281 ft | 440 kts | 21° |
| 2026-04-23 13:57 | 48.70031 | 1.41193 | 38291 ft | 444 kts | 21° |
| 2026-04-23 13:57 | 48.75762 | 1.44744 | 38299 ft | 444 kts | 22° |
| 2026-04-23 13:58 | 48.81478 | 1.48294 | 38306 ft | 444 kts | 21° |
| 2026-04-23 13:58 | 48.87210 | 1.51863 | 38306 ft | 444 kts | 21° |
| 2026-04-23 13:59 | 48.92907 | 1.55419 | 38309 ft | 444 kts | 21° |
| 2026-04-23 13:59 | 48.98627 | 1.58998 | 38317 ft | 444 kts | 21° |
| 2026-04-23 14:00 | 49.03383 | 1.61982 | 38316 ft | 444 kts | 21° |
| 2026-04-23 14:00 | 49.10087 | 1.66196 | 38313 ft | 446 kts | 22° |
| 2026-04-23 14:01 | 49.15846 | 1.69827 | 38315 ft | 447 kts | 22° |
| 2026-04-23 14:01 | 49.21579 | 1.73450 | 38316 ft | 448 kts | 22° |
| 2026-04-23 14:02 | 49.27350 | 1.77107 | 38323 ft | 448 kts | 22° |
| 2026-04-23 14:02 | 49.33100 | 1.80758 | 38319 ft | 452 kts | 23° |
| 2026-04-23 14:03 | 49.38923 | 1.84467 | 38322 ft | 452 kts | 24° |
| 2026-04-23 14:03 | 49.44749 | 1.88186 | 38344 ft | 452 kts | 24° |
| 2026-04-23 14:04 | 49.50498 | 1.92005 | 38320 ft | 451 kts | 32° |
| 2026-04-23 14:04 | 49.52970 | 1.94914 | 38336 ft | 445 kts | 45° |
| 2026-04-23 14:04 | 49.55237 | 1.98195 | 38111 ft | 449 kts | 44° |
| 2026-04-23 14:04 | 49.57530 | 2.01487 | 37261 ft | 451 kts | 45° |
| 2026-04-23 14:05 | 49.59808 | 2.04811 | 36598 ft | 450 kts | 46° |
| 2026-04-23 14:05 | 49.62062 | 2.08139 | 35972 ft | 448 kts | 46° |
| 2026-04-23 14:05 | 49.64278 | 2.11435 | 35278 ft | 448 kts | 47° |
| 2026-04-23 14:05 | 49.66533 | 2.14796 | 34488 ft | 452 kts | 47° |
| 2026-04-23 14:06 | 49.68809 | 2.18191 | 33544 ft | 456 kts | 48° |
| 2026-04-23 14:06 | 49.71093 | 2.21603 | 32677 ft | 458 kts | 48° |
| 2026-04-23 14:06 | 49.73384 | 2.25028 | 31887 ft | 458 kts | 49° |
| 2026-04-23 14:06 | 49.75678 | 2.28465 | 31047 ft | 458 kts | 50° |
| 2026-04-23 14:07 | 49.77976 | 2.31911 | 30135 ft | 461 kts | 50° |
| 2026-04-23 14:07 | 49.82606 | 2.38869 | 28111 ft | 464 kts | 49° |
| 2026-04-23 14:07 | 49.84894 | 2.42316 | 27141 ft | 466 kts | 49° |
| 2026-04-23 14:08 | 49.87216 | 2.45818 | 26403 ft | 462 kts | 49° |
| 2026-04-23 14:08 | 49.89510 | 2.49285 | 25667 ft | 459 kts | 49° |
| 2026-04-23 14:08 | 49.91805 | 2.52756 | 24910 ft | 462 kts | 48° |
| 2026-04-23 14:08 | 49.94113 | 2.56251 | 24159 ft | 462 kts | 48° |
| 2026-04-23 14:09 | 49.96372 | 2.59682 | 23202 ft | 459 kts | 47° |
| 2026-04-23 14:09 | 49.98650 | 2.63145 | 22376 ft | 457 kts | 47° |
| 2026-04-23 14:09 | 50.00906 | 2.66579 | 21732 ft | 450 kts | 47° |
| 2026-04-23 14:09 | 50.03126 | 2.69963 | 21012 ft | 445 kts | 47° |
| 2026-04-23 14:10 | 50.05334 | 2.73332 | 20296 ft | 442 kts | 47° |
| 2026-04-23 14:10 | 50.07529 | 2.76687 | 19583 ft | 439 kts | 47° |
| 2026-04-23 14:10 | 50.09695 | 2.80001 | 18888 ft | 436 kts | 47° |
| 2026-04-23 14:10 | 50.11855 | 2.83312 | 18139 ft | 433 kts | 46° |
| 2026-04-23 14:11 | 50.13998 | 2.86598 | 17477 ft | 428 kts | 46° |
| 2026-04-23 14:11 | 50.16071 | 2.89782 | 16868 ft | 422 kts | 47° |
| 2026-04-23 14:11 | 50.18155 | 2.92988 | 16177 ft | 418 kts | 47° |
| 2026-04-23 14:11 | 50.20215 | 2.96163 | 15572 ft | 413 kts | 46° |
| 2026-04-23 14:12 | 50.22240 | 2.99285 | 15017 ft | 407 kts | 46° |
| 2026-04-23 14:12 | 50.24240 | 3.02376 | 14502 ft | 401 kts | 46° |
| 2026-04-23 14:12 | 50.26210 | 3.05419 | 13853 ft | 397 kts | 46° |
| 2026-04-23 14:12 | 50.28150 | 3.08424 | 12985 ft | 387 kts | 46° |
| 2026-04-23 14:13 | 50.30032 | 3.11339 | 12419 ft | 369 kts | 46° |
| 2026-04-23 14:13 | 50.31787 | 3.14062 | 12261 ft | 342 kts | 46° |
| 2026-04-23 14:13 | 50.33427 | 3.16610 | 12064 ft | 320 kts | 46° |
| 2026-04-23 14:13 | 50.34937 | 3.18958 | 11912 ft | 300 kts | 47° |
| 2026-04-23 14:14 | 50.36375 | 3.21197 | 11747 ft | 282 kts | 46° |
| 2026-04-23 14:14 | 50.37726 | 3.23298 | 11597 ft | 265 kts | 46° |
| 2026-04-23 14:14 | 50.38992 | 3.25278 | 11462 ft | 249 kts | 49° |
| 2026-04-23 14:14 | 50.39890 | 3.27548 | 11272 ft | 251 kts | 73° |
| 2026-04-23 14:15 | 50.40150 | 3.30304 | 11166 ft | 261 kts | 86° |
| 2026-04-23 14:15 | 50.40214 | 3.33170 | 11043 ft | 266 kts | 88° |
| 2026-04-23 14:15 | 50.40239 | 3.36079 | 10916 ft | 266 kts | 89° |
| 2026-04-23 14:15 | 50.40239 | 3.38971 | 10687 ft | 267 kts | 89° |
| 2026-04-23 14:16 | 50.40226 | 3.41897 | 10414 ft | 267 kts | 89° |
| 2026-04-23 14:16 | 50.40203 | 3.44806 | 10134 ft | 267 kts | 90° |
| 2026-04-23 14:16 | 50.40174 | 3.47706 | 9836 ft | 265 kts | 90° |
| 2026-04-23 14:16 | 50.40141 | 3.50592 | 9535 ft | 264 kts | 90° |
| 2026-04-23 14:17 | 50.40106 | 3.53426 | 9258 ft | 263 kts | 90° |
| 2026-04-23 14:17 | 50.40069 | 3.56285 | 8957 ft | 262 kts | 90° |
| 2026-04-23 14:17 | 50.40031 | 3.59142 | 8671 ft | 261 kts | 90° |
| 2026-04-23 14:17 | 50.39992 | 3.61984 | 8388 ft | 259 kts | 90° |
| 2026-04-23 14:18 | 50.39954 | 3.64811 | 8106 ft | 259 kts | 90° |
| 2026-04-23 14:18 | 50.39913 | 3.67629 | 7817 ft | 257 kts | 90° |
| 2026-04-23 14:18 | 50.39874 | 3.70395 | 7550 ft | 256 kts | 90° |
| 2026-04-23 14:18 | 50.39833 | 3.73178 | 7275 ft | 255 kts | 89° |
| 2026-04-23 14:19 | 50.39792 | 3.75963 | 6993 ft | 255 kts | 90° |
| 2026-04-23 14:19 | 50.39750 | 3.78742 | 6720 ft | 254 kts | 90° |
| 2026-04-23 14:19 | 50.39708 | 3.81508 | 6420 ft | 253 kts | 90° |
| 2026-04-23 14:19 | 50.39664 | 3.84263 | 6119 ft | 253 kts | 90° |
| 2026-04-23 14:20 | 50.39620 | 3.87013 | 5839 ft | 251 kts | 90° |
| 2026-04-23 14:20 | 50.39577 | 3.89737 | 5547 ft | 249 kts | 90° |
| 2026-04-23 14:20 | 50.39533 | 3.92453 | 5279 ft | 248 kts | 90° |
| 2026-04-23 14:20 | 50.39489 | 3.95125 | 5017 ft | 248 kts | 90° |
| 2026-04-23 14:21 | 50.39441 | 3.97835 | 4735 ft | 249 kts | 90° |
| 2026-04-23 14:21 | 50.39397 | 4.00543 | 4407 ft | 248 kts | 90° |
| 2026-04-23 14:21 | 50.39352 | 4.03217 | 4189 ft | 244 kts | 91° |
| 2026-04-23 14:21 | 50.39307 | 4.05875 | 3988 ft | 243 kts | 90° |
| 2026-04-23 14:22 | 50.39260 | 4.08514 | 3727 ft | 241 kts | 90° |
| 2026-04-23 14:22 | 50.39213 | 4.11132 | 3535 ft | 239 kts | 90° |
| 2026-04-23 14:22 | 50.39165 | 4.13728 | 3304 ft | 238 kts | 90° |
| 2026-04-23 14:22 | 50.39118 | 4.16304 | 3164 ft | 240 kts | 89° |
| 2026-04-23 14:23 | 50.39067 | 4.18915 | 2906 ft | 239 kts | 89° |
| 2026-04-23 14:23 | 50.39115 | 4.21493 | 2657 ft | 233 kts | 75° |
| 2026-04-23 14:23 | 50.39732 | 4.23768 | 2620 ft | 221 kts | 63° |
| 2026-04-23 14:23 | 50.40354 | 4.25913 | 2579 ft | 209 kts | 65° |
| 2026-04-23 14:24 | 50.40932 | 4.27912 | 2560 ft | 196 kts | 64° |
| 2026-04-23 14:24 | 50.41485 | 4.29847 | 2582 ft | 193 kts | 64° |
| 2026-04-23 14:24 | 50.42010 | 4.31681 | 2505 ft | 175 kts | 65° |
| 2026-04-23 14:24 | 50.42474 | 4.33369 | 2144 ft | 162 kts | 65° |
| 2026-04-23 14:25 | 50.42906 | 4.34931 | 1840 ft | 149 kts | 64° |
| 2026-04-23 14:25 | 50.43290 | 4.36328 | 1674 ft | 131 kts | 59° |
| 2026-04-23 14:25 | 50.43713 | 4.37574 | 1465 ft | 129 kts | 59° |
| 2026-04-23 14:25 | 50.44088 | 4.38850 | 1288 ft | 129 kts | 63° |
| 2026-04-23 14:26 | 50.44498 | 4.40175 | 1168 ft | 142 kts | 60° |
| 2026-04-23 14:26 | 50.44888 | 4.41540 | 1012 ft | 133 kts | 62° |
| 2026-04-23 14:26 | 50.45288 | 4.42856 | 780 ft | 134 kts | 64° |
| 2026-04-23 14:26 | 50.45644 | 4.44125 | 664 ft | 123 kts | 62° |
| 2026-04-23 14:27 | 50.45974 | 4.45248 | 620 ft | 82 kts | 64° |
| 2026-04-23 14:27 | 50.46145 | 4.45832 | 622 ft | 56 kts | 65° |
| 2026-04-23 14:27 | 50.46306 | 4.46386 | 620 ft | 55 kts | 65° |
| 2026-04-23 14:27 | 50.46427 | 4.46794 | 622 ft | 26 kts | 59° |
| 2026-04-23 14:28 | 50.46571 | 4.46848 | 616 ft | 24 kts | 336° |
| 2026-04-23 14:28 | 50.46689 | 4.46784 | 616 ft | 12 kts | 16° |
| 2026-04-23 14:28 | 50.46736 | 4.46905 | 624 ft | 7 kts | 60° |
| 2026-04-23 14:28 | 50.46754 | 4.46927 | 616 ft | 6 kts | 37° |
| 2026-04-23 14:29 | 50.46790 | 4.47027 | 626 ft | 12 kts | 64° |
| 2026-04-23 14:29 | 50.46829 | 4.47059 | 618 ft | 6 kts | 341° |
| 2026-04-23 14:29 | 50.46849 | 4.47045 | 623 ft | 2 kts | 336° |
| 2026-04-23 14:29 | 50.46854 | 4.47041 | 621 ft | 0 kts | 336° |